Time;durP1;ratioP1;P1;durP2;ratioP2;P2;SDS_P1;SDS_P2;PMS_P1;PMS_P2;Temp;Humidity;BMP_temperature;BMP_pressure;BME280_temperature;BME280_humidity;BME280_pressure;Samples;Min_cycle;Max_cycle;Signal;HPM_P1;HPM_P2
2022/09/25 00:01:17;;;;;;;20.73;16.65;;;19.70;97.50;;;;;;10170876;29;20302;-86
2022/09/25 00:06:23;;;;;;;23.25;16.48;;;19.70;97.40;;;;;;10170553;29;20227;-87
2022/09/25 00:11:28;;;;;;;20.50;16.13;;;19.70;97.40;;;;;;10151558;29;20785;-87
2022/09/25 00:16:31;;;;;;;22.88;16.83;;;19.70;97.30;;;;;;10139549;29;20665;-86
2022/09/25 00:21:35;;;;;;;20.63;15.85;;;19.80;97.20;;;;;;10113797;29;20261;-86
2022/09/25 00:26:40;;;;;;;20.70;16.38;;;19.70;97.10;;;;;;10139427;29;20243;-87
2022/09/25 00:31:43;;;;;;;21.38;15.93;;;19.70;97.10;;;;;;10150812;29;20793;-86
2022/09/25 00:36:45;;;;;;;18.85;15.55;;;19.70;97.00;;;;;;10146281;29;20711;-86
2022/09/25 00:41:47;;;;;;;20.77;16.42;;;19.70;96.90;;;;;;10169477;29;20200;-86
2022/09/25 00:46:50;;;;;;;21.30;16.55;;;19.70;96.80;;;;;;10167117;29;20239;-86
2022/09/25 00:52:01;;;;;;;19.13;15.15;;;19.70;96.80;;;;;;10151965;29;20314;-86
2022/09/25 00:57:07;;;;;;;18.33;16.02;;;19.70;96.60;;;;;;10167886;29;20231;-86
2022/09/25 01:02:15;;;;;;;20.90;16.90;;;19.70;96.50;;;;;;10168494;29;20313;-86
2022/09/25 01:07:18;;;;;;;18.58;15.90;;;19.70;96.50;;;;;;10136248;29;20215;-86
2022/09/25 01:12:21;;;;;;;18.90;15.98;;;19.70;96.40;;;;;;10151266;29;20753;-86
2022/09/25 01:17:34;;;;;;;18.42;15.48;;;19.80;96.30;;;;;;10166882;29;20270;-86
2022/09/25 01:22:54;;;;;;;20.38;15.13;;;19.70;96.20;;;;;;10168548;29;20235;-86
2022/09/25 01:28:15;;;;;;;19.63;15.02;;;19.70;96.10;;;;;;10166765;29;20298;-86
2022/09/25 01:33:31;;;;;;;19.42;16.17;;;19.70;96.10;;;;;;10150000;29;20263;-86
2022/09/25 01:38:45;;;;;;;18.42;15.10;;;19.70;96.00;;;;;;10150595;29;20314;-86
2022/09/25 01:43:55;;;;;;;21.75;15.63;;;19.70;95.90;;;;;;10150236;29;20303;-86
2022/09/25 01:49:07;;;;;;;18.05;15.10;;;19.70;95.80;;;;;;10150735;29;20314;-86
2022/09/25 01:54:23;;;;;;;19.23;15.45;;;19.70;95.80;;;;;;10135120;29;20299;-86
2022/09/25 01:59:34;;;;;;;20.88;15.15;;;19.70;95.70;;;;;;10150255;29;20600;-86
2022/09/25 02:05:01;;;;;;;20.25;14.68;;;19.70;95.60;;;;;;10150019;29;20271;-86
2022/09/25 02:10:31;;;;;;;19.27;15.00;;;19.70;95.50;;;;;;10174428;29;20255;-86
2022/09/25 02:15:41;;;;;;;19.13;15.45;;;19.70;95.50;;;;;;10156134;29;20244;-86
2022/09/25 02:20:54;;;;;;;17.88;15.38;;;19.70;95.40;;;;;;10133492;29;20694;-86
2022/09/25 02:26:13;;;;;;;17.48;14.40;;;19.70;95.30;;;;;;10134897;29;20232;-86
2022/09/25 02:31:16;;;;;;;18.40;14.98;;;19.70;95.20;;;;;;10133667;29;20263;-86
2022/09/25 02:36:22;;;;;;;18.25;15.00;;;19.70;95.10;;;;;;10132552;29;20236;-86
2022/09/25 02:42:04;;;;;;;20.30;16.27;;;19.70;95.00;;;;;;10133492;29;20244;-86
2022/09/25 02:47:17;;;;;;;19.15;15.27;;;19.70;94.80;;;;;;10133636;29;20247;-86
2022/09/25 02:52:46;;;;;;;19.05;15.18;;;19.70;94.70;;;;;;10140979;29;20256;-86
2022/09/25 02:57:57;;;;;;;20.23;15.75;;;19.70;94.60;;;;;;10116617;29;20755;-86
2022/09/25 03:03:02;;;;;;;18.45;14.55;;;19.70;94.60;;;;;;10093873;29;20696;-86
2022/09/25 03:13:30;;;;;;;20.13;15.00;;;19.70;94.40;;;;;;10103031;29;20291;-86
2022/09/25 03:18:33;;;;;;;19.55;16.15;;;19.70;94.30;;;;;;10145496;29;20397;-86
2022/09/25 03:23:35;;;;;;;19.55;15.27;;;19.70;94.20;;;;;;10100264;29;20717;-86
2022/09/25 03:28:38;;;;;;;18.17;15.23;;;19.70;94.00;;;;;;10133145;29;20201;-86
2022/09/25 03:33:41;;;;;;;18.85;15.65;;;19.70;93.90;;;;;;10131238;29;20767;-86
2022/09/25 03:38:46;;;;;;;17.05;14.50;;;19.70;93.80;;;;;;10116379;29;20235;-86
2022/09/25 03:43:50;;;;;;;19.83;14.93;;;19.70;93.80;;;;;;10098599;29;20239;-86
2022/09/25 03:48:53;;;;;;;21.58;15.57;;;19.70;93.90;;;;;;10131701;29;20289;-86
2022/09/25 03:53:56;;;;;;;17.70;14.43;;;19.70;93.70;;;;;;10115611;29;20276;-86
2022/09/25 03:58:58;;;;;;;17.63;14.45;;;19.70;93.60;;;;;;10113809;29;20295;-86
2022/09/25 04:04:02;;;;;;;16.98;15.10;;;19.70;93.60;;;;;;10130863;29;20310;-86
2022/09/25 04:09:04;;;;;;;18.08;14.80;;;19.60;93.70;;;;;;10114169;29;20332;-86
2022/09/25 04:14:07;;;;;;;18.23;15.10;;;19.60;93.70;;;;;;10114523;29;20260;-86
2022/09/25 04:19:09;;;;;;;17.00;14.82;;;19.60;93.60;;;;;;10128806;29;20271;-86
2022/09/25 04:29:33;;;;;;;16.85;14.88;;;19.60;93.50;;;;;;10130154;29;20276;-86
2022/09/25 04:34:35;;;;;;;18.88;15.18;;;19.60;93.40;;;;;;10128562;29;20691;-85
2022/09/25 04:39:38;;;;;;;16.52;14.25;;;19.70;93.30;;;;;;10113851;29;20204;-85
2022/09/25 04:44:40;;;;;;;18.33;15.20;;;19.70;93.30;;;;;;10114244;29;20236;-86
2022/09/25 04:49:43;;;;;;;19.05;14.63;;;19.70;93.20;;;;;;10112368;29;20710;-86
2022/09/25 04:54:46;;;;;;;18.83;14.98;;;19.70;93.20;;;;;;10130704;29;20240;-86
2022/09/25 04:59:49;;;;;;;17.90;14.63;;;19.70;93.10;;;;;;10129630;29;20579;-86
2022/09/25 05:04:52;;;;;;;17.02;14.73;;;19.70;93.10;;;;;;10098127;29;20609;-86
2022/09/25 05:09:54;;;;;;;18.90;14.98;;;19.70;93.10;;;;;;10129858;29;20665;-86
2022/09/25 05:14:57;;;;;;;19.27;15.70;;;19.70;93.00;;;;;;10120903;29;20755;-86
2022/09/25 05:19:59;;;;;;;17.85;15.00;;;19.70;93.00;;;;;;10139555;29;20267;-86
2022/09/25 05:25:02;;;;;;;18.55;14.68;;;19.70;93.00;;;;;;10131749;29;20282;-86
2022/09/25 05:30:07;;;;;;;19.42;15.75;;;19.80;93.00;;;;;;10130982;29;20296;-86
2022/09/25 05:35:10;;;;;;;19.60;14.00;;;19.80;92.90;;;;;;10148507;29;20231;-86
2022/09/25 05:40:17;;;;;;;18.90;14.60;;;19.80;92.90;;;;;;10142419;29;20250;-87
2022/09/25 05:45:22;;;;;;;18.02;14.73;;;19.80;92.90;;;;;;10143861;29;20231;-86
2022/09/25 05:50:24;;;;;;;17.77;15.02;;;19.80;92.90;;;;;;10154647;29;20247;-86
2022/09/25 05:55:28;;;;;;;18.75;14.93;;;19.80;92.80;;;;;;10154060;29;20262;-87
2022/09/25 06:00:32;;;;;;;18.67;14.10;;;19.90;92.70;;;;;;10159175;29;20220;-86
2022/09/25 06:05:35;;;;;;;18.88;15.27;;;20.00;92.70;;;;;;10142424;29;20267;-87
2022/09/25 06:10:37;;;;;;;18.75;15.02;;;19.90;92.70;;;;;;10151726;29;20685;-86
2022/09/25 06:15:43;;;;;;;17.48;14.65;;;20.00;92.60;;;;;;10148409;29;20679;-86
2022/09/25 06:20:45;;;;;;;19.73;16.15;;;20.00;92.50;;;;;;10156657;29;20239;-86
2022/09/25 06:25:48;;;;;;;17.10;14.82;;;20.00;92.50;;;;;;10142063;29;20231;-88
2022/09/25 06:30:50;;;;;;;18.17;15.07;;;20.00;92.50;;;;;;10140762;29;20249;-86
2022/09/25 06:35:53;;;;;;;15.88;14.15;;;20.00;92.60;;;;;;10137404;29;20651;-86
2022/09/25 06:40:58;;;;;;;17.70;14.82;;;20.00;92.70;;;;;;10121739;29;20217;-87
2022/09/25 06:46:02;;;;;;;16.77;14.73;;;20.00;92.70;;;;;;10161975;29;20243;-86
2022/09/25 06:51:07;;;;;;;16.23;14.45;;;20.00;92.70;;;;;;10156557;29;20697;-86
2022/09/25 06:56:11;;;;;;;17.10;14.88;;;20.00;92.70;;;;;;10172840;29;20287;-87
2022/09/25 07:01:13;;;;;;;19.13;15.77;;;20.00;92.70;;;;;;10173315;29;20208;-87
2022/09/25 07:06:22;;;;;;;18.02;14.68;;;20.00;92.90;;;;;;10174057;29;20275;-87
2022/09/25 07:11:27;;;;;;;18.63;15.25;;;20.00;93.00;;;;;;10162654;29;20223;-87
2022/09/25 07:16:29;;;;;;;18.15;14.82;;;20.00;93.00;;;;;;10171388;29;20265;-87
2022/09/25 07:21:32;;;;;;;16.85;14.43;;;20.10;93.00;;;;;;10102177;29;20204;-87
2022/09/25 07:26:34;;;;;;;17.23;15.30;;;20.10;92.90;;;;;;10117254;29;20213;-87
2022/09/25 07:31:43;;;;;;;16.15;14.43;;;20.10;92.60;;;;;;10153126;29;20247;-87
2022/09/25 07:36:46;;;;;;;19.33;15.18;;;20.20;92.60;;;;;;10143182;29;20208;-87
2022/09/25 07:41:52;;;;;;;20.40;15.30;;;20.20;92.50;;;;;;10134026;29;20200;-87
2022/09/25 07:46:55;;;;;;;19.38;15.13;;;20.30;92.30;;;;;;10116372;29;20272;-86
2022/09/25 07:51:58;;;;;;;18.45;15.48;;;20.40;92.00;;;;;;10132369;29;20239;-87
2022/09/25 07:57:00;;;;;;;17.25;14.93;;;20.60;91.70;;;;;;10133903;29;20236;-87
2022/09/25 08:02:04;;;;;;;19.80;15.30;;;20.50;91.70;;;;;;10133851;29;20208;-87
2022/09/25 08:07:06;;;;;;;16.45;14.73;;;20.50;91.80;;;;;;10112856;29;20220;-87
2022/09/25 08:12:11;;;;;;;17.40;14.52;;;20.50;91.90;;;;;;10117032;29;20224;-87
2022/09/25 08:17:14;;;;;;;22.20;16.20;;;20.50;91.80;;;;;;10127493;29;20595;-87
2022/09/25 08:22:16;;;;;;;20.50;15.93;;;20.50;91.80;;;;;;10155976;29;20200;-87
2022/09/25 08:27:19;;;;;;;17.95;14.88;;;20.50;91.70;;;;;;10149823;29;20207;-87
2022/09/25 08:32:21;;;;;;;16.35;14.40;;;20.50;91.70;;;;;;10170924;29;20255;-87
2022/09/25 08:37:24;;;;;;;15.70;13.88;;;20.60;91.60;;;;;;10172737;29;20239;-87
2022/09/25 08:42:36;;;;;;;15.52;13.80;;;20.60;91.50;;;;;;10171734;29;20215;-86
2022/09/25 08:53:23;;;;;;;16.70;14.20;;;20.60;91.50;;;;;;10173057;29;20243;-87
2022/09/25 08:58:29;;;;;;;15.55;13.52;;;20.60;91.60;;;;;;10171610;29;20207;-87
2022/09/25 09:03:43;;;;;;;16.80;13.68;;;20.60;91.60;;;;;;10153916;29;20678;-87
2022/09/25 09:09:10;;;;;;;16.55;13.95;;;20.60;91.50;;;;;;10170792;29;20243;-89
2022/09/25 09:14:19;;;;;;;15.70;13.82;;;19.40;94.00;;;;;;10168753;29;20251;-87
2022/09/25 09:19:22;;;;;;;15.32;13.57;;;20.40;92.70;;;;;;10124353;29;20319;-87
2022/09/25 09:24:45;;;;;;;15.82;13.38;;;20.50;92.10;;;;;;10129696;29;20212;-86
2022/09/25 09:29:50;;;;;;;15.10;13.43;;;20.60;92.00;;;;;;10113553;29;20302;-86
2022/09/25 09:35:17;;;;;;;15.13;13.55;;;20.60;92.00;;;;;;10118484;29;20355;-88
2022/09/25 09:40:28;;;;;;;15.45;12.75;;;20.60;91.90;;;;;;10162474;29;20200;-87
2022/09/25 09:45:54;;;;;;;15.75;13.23;;;20.60;91.80;;;;;;10131313;29;20222;-87
2022/09/25 09:51:07;;;;;;;17.98;13.75;;;20.70;91.60;;;;;;10114028;29;20251;-87
2022/09/25 09:56:14;;;;;;;16.08;13.18;;;20.70;91.50;;;;;;10131260;29;20224;-87
2022/09/25 10:01:21;;;;;;;16.80;12.95;;;20.70;91.60;;;;;;10129424;29;20315;-87
2022/09/25 10:07:07;;;;;;;15.10;13.25;;;20.70;91.60;;;;;;10097500;29;20629;-87
2022/09/25 10:12:19;;;;;;;14.65;12.65;;;20.70;91.50;;;;;;10129850;29;20255;-87
2022/09/25 10:17:23;;;;;;;16.20;13.10;;;20.70;91.50;;;;;;10129427;29;20256;-87
2022/09/25 10:22:36;;;;;;;14.52;12.75;;;20.80;91.40;;;;;;9771948;29;10000187;-87
2022/09/25 10:27:44;;;;;;;14.48;12.82;;;20.80;91.00;;;;;;10118585;29;20298;-87
2022/09/25 10:33:19;;;;;;;14.63;12.63;;;20.90;90.90;;;;;;10133505;29;20315;-87
2022/09/25 10:38:40;;;;;;;13.38;11.98;;;21.00;90.50;;;;;;10117954;29;20294;-87
2022/09/25 10:43:53;;;;;;;14.85;12.63;;;21.00;90.50;;;;;;10114394;29;20256;-87
2022/09/25 10:54:41;;;;;;;13.50;11.98;;;21.20;89.10;;;;;;10131652;29;20259;-87
2022/09/25 10:59:51;;;;;;;12.07;10.88;;;21.10;89.70;;;;;;10114348;29;20228;-86
2022/09/25 11:04:55;;;;;;;13.07;11.68;;;21.10;89.80;;;;;;10133092;29;20303;-88
2022/09/25 11:09:58;;;;;;;13.35;10.88;;;21.20;89.10;;;;;;10116129;29;20236;-88
2022/09/25 11:15:05;;;;;;;11.93;10.50;;;21.20;88.80;;;;;;10115347;29;20252;-90
2022/09/25 11:20:20;;;;;;;13.90;11.93;;;21.30;88.10;;;;;;10136258;29;20251;-86
2022/09/25 11:25:28;;;;;;;15.30;12.10;;;21.30;88.00;;;;;;10126069;29;20826;-87
2022/09/25 11:30:42;;;;;;;13.15;11.40;;;21.20;88.50;;;;;;10133247;29;20280;-87
2022/09/25 11:36:09;;;;;;;12.10;10.35;;;21.00;89.10;;;;;;10138896;29;20208;-87
2022/09/25 11:41:36;;;;;;;11.65;10.40;;;20.90;90.00;;;;;;10153766;29;20188;-89
2022/09/25 11:47:16;;;;;;;13.80;11.55;;;20.70;90.10;;;;;;10169700;29;20208;-88
2022/09/25 11:52:21;;;;;;;12.27;10.85;;;20.80;90.30;;;;;;10176988;29;20224;-88
2022/09/25 11:57:41;;;;;;;12.20;10.93;;;20.20;92.20;;;;;;10174106;29;20197;-88
2022/09/25 12:03:00;;;;;;;12.07;9.05;;;20.50;82.80;;;;;;10165363;29;20200;-90
2022/09/25 12:08:08;;;;;;;10.32;8.13;;;20.00;90.70;;;;;;10154189;29;20196;-90
2022/09/25 12:13:22;;;;;;;11.67;9.23;;;19.00;86.00;;;;;;10134088;29;20215;-90
2022/09/25 12:18:48;;;;;;;10.00;6.70;;;19.10;84.00;;;;;;10185253;29;20215;-89
2022/09/25 12:24:17;;;;;;;10.23;7.13;;;19.70;85.00;;;;;;10205261;29;20187;-89
2022/09/25 12:29:45;;;;;;;8.93;6.97;;;20.00;82.00;;;;;;10188028;29;20225;-89
2022/09/25 12:34:54;;;;;;;9.75;6.60;;;20.10;80.50;;;;;;10205007;29;20236;-89
2022/09/25 12:40:12;;;;;;;9.38;7.65;;;20.20;81.20;;;;;;10204754;29;20192;-87
2022/09/25 12:45:24;;;;;;;6.35;5.75;;;20.10;81.10;;;;;;10202508;29;20203;-91
2022/09/25 12:50:37;;;;;;;10.07;7.55;;;19.90;83.60;;;;;;10218511;29;20212;-88
2022/09/25 12:55:47;;;;;;;8.73;6.47;;;19.90;94.70;;;;;;10195600;29;20715;-89
2022/09/25 13:01:00;;;;;;;8.82;6.30;;;20.30;92.00;;;;;;10189000;29;20200;-88
2022/09/25 13:06:20;;;;;;;6.60;6.00;;;20.40;90.00;;;;;;10206932;29;20232;-89
2022/09/25 13:11:49;;;;;;;9.38;7.35;;;20.50;88.80;;;;;;10208202;29;20286;-89
2022/09/25 13:16:52;;;;;;;11.43;6.87;;;18.50;86.30;;;;;;10204675;29;20247;-88
2022/09/25 13:22:07;;;;;;;14.97;6.90;;;18.10;87.90;;;;;;10204826;29;20264;-88
2022/09/25 13:27:17;;;;;;;8.30;7.43;;;18.10;87.50;;;;;;10210632;28;20195;-88
2022/09/25 13:32:22;;;;;;;8.47;7.07;;;18.20;91.20;;;;;;10243908;28;20227;-88
2022/09/25 13:37:30;;;;;;;7.03;6.33;;;17.70;90.60;;;;;;10211951;28;20214;-88
2022/09/25 13:42:42;;;;;;;9.27;6.63;;;17.80;91.60;;;;;;10202130;29;20176;-88
2022/09/25 13:48:12;;;;;;;6.67;5.70;;;18.00;89.80;;;;;;10204689;29;20203;-89
2022/09/25 13:53:26;;;;;;;5.80;5.30;;;18.10;99.40;;;;;;10206075;28;20207;-88
2022/09/25 13:58:50;;;;;;;8.07;4.77;;;17.90;86.80;;;;;;10194997;29;20188;-88
2022/09/25 14:03:53;;;;;;;6.17;5.27;;;18.00;90.10;;;;;;10183848;29;20263;-88
2022/09/25 14:08:59;;;;;;;6.60;5.90;;;17.50;96.00;;;;;;10192906;29;20204;-88
2022/09/25 14:14:07;;;;;;;6.07;5.00;;;17.80;91.70;;;;;;10207634;29;20223;-87
2022/09/25 14:19:18;;;;;;;6.30;4.73;;;18.00;90.30;;;;;;10164452;29;20713;-87
2022/09/25 14:24:28;;;;;;;5.83;5.27;;;19.70;90.30;;;;;;10170408;29;20789;-90
2022/09/25 14:29:38;;;;;;;7.80;4.72;;;20.20;81.50;;;;;;10182426;29;20200;-90
2022/09/25 14:35:10;;;;;;;4.53;4.00;;;20.40;79.90;;;;;;10213003;29;20231;-90
2022/09/25 14:40:19;;;;;;;4.97;4.47;;;20.50;80.70;;;;;;10168605;29;20208;-90
2022/09/25 14:45:48;;;;;;;4.43;3.88;;;20.60;81.50;;;;;;10166930;29;20278;-89
2022/09/25 14:50:58;;;;;;;4.53;4.13;;;20.60;82.00;;;;;;10183458;29;20263;-90
2022/09/25 14:56:02;;;;;;;5.65;3.50;;;20.50;83.60;;;;;;10166545;29;20235;-89
2022/09/25 15:01:13;;;;;;;4.13;3.75;;;20.60;84.30;;;;;;10185234;29;20573;-90
2022/09/25 15:06:34;;;;;;;7.75;4.13;;;20.60;84.80;;;;;;10180722;29;20200;-90
2022/09/25 15:11:42;;;;;;;4.50;4.10;;;20.60;85.70;;;;;;10180885;29;20622;-90
2022/09/25 15:22:16;;;;;;;4.65;4.18;;;20.50;87.50;;;;;;10180853;29;20235;-90
2022/09/25 15:27:21;;;;;;;4.07;3.65;;;20.40;89.00;;;;;;10180136;29;20564;-89
2022/09/25 15:32:29;;;;;;;4.55;4.13;;;20.40;89.90;;;;;;10147013;29;20249;-90
2022/09/25 15:37:32;;;;;;;4.60;4.20;;;20.30;90.40;;;;;;10180024;29;20231;-89
2022/09/25 15:42:35;;;;;;;4.63;4.22;;;20.30;90.70;;;;;;10166554;29;20220;-90
2022/09/25 15:47:37;;;;;;;6.32;3.92;;;20.30;91.20;;;;;;10165527;29;20576;-89
2022/09/25 15:52:40;;;;;;;4.32;3.92;;;20.20;91.50;;;;;;10182021;29;20601;-89
2022/09/25 15:57:43;;;;;;;4.35;3.70;;;20.20;91.80;;;;;;10181271;29;20230;-89
2022/09/25 16:08:35;;;;;;;4.43;4.00;;;20.10;92.50;;;;;;10180269;29;20630;-90
2022/09/25 16:13:41;;;;;;;4.43;4.03;;;20.20;92.80;;;;;;10147591;29;20219;-90
2022/09/25 16:18:44;;;;;;;4.53;4.10;;;20.10;93.10;;;;;;10179241;29;20714;-89
2022/09/25 16:23:53;;;;;;;4.47;4.07;;;20.10;93.30;;;;;;10171427;29;20758;-90
2022/09/25 16:29:16;;;;;;;4.50;4.03;;;20.10;93.50;;;;;;10155235;29;20211;-89
2022/09/25 16:34:32;;;;;;;4.55;4.13;;;20.00;93.70;;;;;;10174353;29;20260;-89
2022/09/25 16:39:36;;;;;;;34.72;6.82;;;20.00;93.80;;;;;;10156095;29;20199;-87
2022/09/25 16:44:45;;;;;;;16.08;6.53;;;19.90;94.50;;;;;;10161496;29;20704;-86
2022/09/25 16:49:48;;;;;;;10.50;7.97;;;19.80;97.60;;;;;;10160965;29;20318;-86
2022/09/25 16:54:53;;;;;;;14.65;9.45;;;20.20;96.80;;;;;;10187121;29;20271;-86
2022/09/25 16:59:55;;;;;;;15.23;11.57;;;20.70;95.50;;;;;;10216742;29;20663;-85
2022/09/25 17:05:00;;;;;;;17.83;13.13;;;21.10;94.60;;;;;;10168350;29;20260;-86
2022/09/25 17:10:03;;;;;;;19.35;15.35;;;21.30;93.60;;;;;;10154024;29;20695;-86
2022/09/25 17:15:13;;;;;;;23.38;16.05;;;21.60;92.80;;;;;;10171771;29;20246;-86
2022/09/25 17:20:16;;;;;;;25.33;17.27;;;21.70;92.40;;;;;;10160130;29;20291;-86
2022/09/25 17:25:35;;;;;;;23.70;17.48;;;21.80;92.00;;;;;;10150382;29;20235;-86
2022/09/25 17:30:39;;;;;;;22.63;16.45;;;21.90;91.60;;;;;;10166697;29;20235;-86
2022/09/25 17:36:09;;;;;;;22.17;17.52;;;22.00;91.40;;;;;;10149835;29;20258;-86
2022/09/25 17:41:20;;;;;;;22.70;16.73;;;22.10;91.20;;;;;;10200482;29;20239;-86
2022/09/25 17:46:25;;;;;;;20.80;17.88;;;22.10;90.90;;;;;;10213619;29;20184;-86
2022/09/25 17:51:28;;;;;;;20.55;16.75;;;22.20;90.70;;;;;;10229795;29;20184;-86
2022/09/25 17:56:33;;;;;;;23.80;17.83;;;22.20;90.70;;;;;;10212299;29;20615;-85
2022/09/25 18:01:36;;;;;;;23.25;16.73;;;22.20;90.60;;;;;;10212026;29;20184;-85
2022/09/25 18:06:42;;;;;;;18.55;16.35;;;22.20;90.60;;;;;;10197437;29;20231;-85
2022/09/25 18:11:44;;;;;;;19.48;17.17;;;22.20;90.40;;;;;;10188663;29;20203;-85
2022/09/25 18:16:47;;;;;;;19.88;17.70;;;22.20;90.50;;;;;;10190154;29;20649;-85
2022/09/25 18:27:12;;;;;;;20.60;17.17;;;22.10;90.60;;;;;;10175285;29;20204;-85
2022/09/25 18:32:14;;;;;;;21.45;16.63;;;22.10;90.60;;;;;;10163154;29;20196;-85
2022/09/25 18:37:17;;;;;;;21.92;16.83;;;22.10;90.70;;;;;;10184040;29;20233;-85
2022/09/25 18:42:19;;;;;;;21.75;16.65;;;22.00;90.70;;;;;;10183960;29;20207;-85
2022/09/25 18:47:22;;;;;;;22.52;17.95;;;22.00;90.80;;;;;;10162725;29;20211;-84
2022/09/25 18:52:24;;;;;;;19.73;16.48;;;22.00;90.80;;;;;;10179926;29;20267;-85
2022/09/25 18:57:27;;;;;;;20.90;17.00;;;22.00;91.00;;;;;;10166170;29;20308;-85
2022/09/25 19:02:30;;;;;;;21.17;17.10;;;22.00;91.00;;;;;;10183785;29;20200;-84
2022/09/25 19:07:35;;;;;;;21.27;17.20;;;21.90;91.20;;;;;;10166689;29;20232;-85
2022/09/25 19:12:38;;;;;;;21.42;17.13;;;21.90;91.20;;;;;;10180074;29;20219;-85
2022/09/25 19:17:40;;;;;;;21.00;17.30;;;21.90;91.30;;;;;;10209451;29;20263;-85
2022/09/25 19:22:43;;;;;;;19.63;17.02;;;21.80;91.50;;;;;;10177405;29;20211;-85
2022/09/25 19:27:48;;;;;;;20.75;16.77;;;21.80;91.60;;;;;;10196639;29;20200;-86
2022/09/25 19:32:51;;;;;;;22.30;16.85;;;21.70;91.80;;;;;;10169005;29;20259;-84
2022/09/25 19:37:53;;;;;;;20.90;17.60;;;21.70;92.00;;;;;;10179912;29;20228;-85
2022/09/25 19:42:56;;;;;;;20.02;17.70;;;21.60;92.00;;;;;;10154652;29;20670;-85
2022/09/25 19:47:59;;;;;;;20.65;17.50;;;21.60;92.00;;;;;;10149699;29;20271;-85
2022/09/25 19:53:01;;;;;;;22.42;17.98;;;21.60;92.00;;;;;;10174473;29;20220;-85
2022/09/25 19:58:04;;;;;;;24.67;18.08;;;21.60;92.10;;;;;;10130778;29;20679;-85
2022/09/25 20:03:07;;;;;;;24.20;17.33;;;21.60;92.10;;;;;;10174915;29;20208;-85
2022/09/25 20:08:11;;;;;;;22.13;18.20;;;21.60;92.10;;;;;;10145789;29;20208;-85
2022/09/25 20:13:26;;;;;;;23.83;18.08;;;21.60;92.20;;;;;;10158880;29;20302;-85
2022/09/25 20:18:28;;;;;;;21.83;18.08;;;21.50;92.10;;;;;;10174694;29;20275;-85
2022/09/25 20:23:31;;;;;;;20.48;16.30;;;21.50;92.10;;;;;;10173640;29;20203;-85
2022/09/25 20:28:40;;;;;;;21.30;17.25;;;21.50;92.20;;;;;;10151030;29;20232;-85
2022/09/25 20:33:42;;;;;;;21.10;18.08;;;21.50;92.20;;;;;;10157367;29;20231;-85
2022/09/25 20:38:49;;;;;;;21.88;17.75;;;21.40;92.20;;;;;;10179986;29;20208;-85
2022/09/25 20:43:54;;;;;;;22.90;18.05;;;21.40;92.30;;;;;;10152186;29;20287;-86
2022/09/25 20:48:58;;;;;;;22.65;18.25;;;21.40;92.30;;;;;;10153709;29;20255;-85
2022/09/25 20:54:08;;;;;;;22.88;18.67;;;21.40;92.40;;;;;;10138479;29;20223;-85
2022/09/25 20:59:12;;;;;;;19.27;16.33;;;21.30;92.40;;;;;;10211298;29;20203;-86
2022/09/25 21:04:16;;;;;;;21.27;17.48;;;21.30;92.60;;;;;;10157496;29;20690;-85
2022/09/25 21:09:28;;;;;;;22.52;18.38;;;21.30;92.50;;;;;;10151767;29;20292;-85
2022/09/25 21:14:32;;;;;;;20.98;17.92;;;21.30;92.50;;;;;;10168717;29;20302;-85
2022/09/25 21:19:35;;;;;;;23.60;18.02;;;21.30;92.50;;;;;;10161412;29;20252;-85
2022/09/25 21:24:38;;;;;;;21.60;18.45;;;21.30;92.40;;;;;;10180300;29;20298;-85
2022/09/25 21:29:40;;;;;;;21.90;18.48;;;21.30;92.30;;;;;;10150496;29;20278;-85
2022/09/25 21:34:43;;;;;;;20.45;17.38;;;21.30;92.40;;;;;;10188427;29;20262;-85
2022/09/25 21:39:45;;;;;;;23.92;18.27;;;21.20;92.40;;;;;;10143458;29;20307;-85
2022/09/25 21:44:49;;;;;;;20.85;17.80;;;21.20;92.30;;;;;;10184090;29;20226;-86
2022/09/25 21:49:54;;;;;;;22.60;18.02;;;21.20;92.30;;;;;;10156332;29;20298;-85
2022/09/25 21:54:58;;;;;;;22.10;18.33;;;21.20;92.40;;;;;;10134670;29;20322;-86
2022/09/25 22:00:02;;;;;;;21.02;17.13;;;21.20;92.40;;;;;;10167374;29;20263;-85
2022/09/25 22:05:06;;;;;;;20.02;17.92;;;21.20;92.50;;;;;;10165001;29;20673;-85
2022/09/25 22:10:08;;;;;;;20.30;17.17;;;21.20;92.50;;;;;;10138113;29;20239;-85
2022/09/25 22:15:11;;;;;;;21.65;17.63;;;21.20;92.50;;;;;;10145652;29;20310;-86
2022/09/25 22:20:14;;;;;;;20.50;16.80;;;21.10;92.60;;;;;;10163822;29;20263;-85
2022/09/25 22:25:23;;;;;;;23.65;17.75;;;21.10;92.60;;;;;;10142633;29;20236;-85
2022/09/25 22:30:25;;;;;;;22.08;18.42;;;21.10;92.70;;;;;;10151172;29;20244;-85
2022/09/25 22:35:28;;;;;;;20.77;17.20;;;21.10;92.80;;;;;;10158940;29;20306;-85
2022/09/25 22:40:30;;;;;;;25.35;18.02;;;21.00;92.90;;;;;;10162148;29;20299;-86
2022/09/25 22:45:33;;;;;;;20.85;18.63;;;21.00;93.00;;;;;;10173124;29;20239;-85
2022/09/25 22:50:35;;;;;;;20.95;17.88;;;21.00;93.00;;;;;;10130102;29;20244;-85
2022/09/25 22:55:38;;;;;;;19.67;17.58;;;21.00;93.10;;;;;;10164861;29;20263;-86
2022/09/25 23:00:46;;;;;;;21.00;18.05;;;20.90;93.30;;;;;;10139151;29;20731;-85
2022/09/25 23:05:48;;;;;;;24.13;18.15;;;20.90;93.30;;;;;;10131092;29;20236;-86
2022/09/25 23:10:51;;;;;;;22.52;18.20;;;21.00;93.30;;;;;;10170399;29;20638;-85
2022/09/25 23:16:08;;;;;;;20.88;17.10;;;21.00;93.30;;;;;;10140156;29;20677;-85
2022/09/25 23:21:11;;;;;;;23.45;19.13;;;20.90;93.30;;;;;;10153715;29;20272;-85
2022/09/25 23:26:13;;;;;;;22.60;18.90;;;20.90;93.50;;;;;;10155704;29;20236;-85
2022/09/25 23:31:17;;;;;;;20.20;17.98;;;20.90;93.50;;;;;;10156126;29;20621;-85
2022/09/25 23:36:23;;;;;;;20.88;18.00;;;20.80;93.50;;;;;;10171740;29;20375;-85
2022/09/25 23:41:32;;;;;;;20.92;18.30;;;20.90;93.60;;;;;;10170751;29;20283;-86
2022/09/25 23:46:38;;;;;;;21.65;18.42;;;20.80;93.60;;;;;;10155296;29;20306;-86
2022/09/25 23:51:41;;;;;;;24.30;19.27;;;20.80;93.70;;;;;;10154944;29;20283;-85
2022/09/25 23:56:43;;;;;;;21.42;18.73;;;20.80;93.80;;;;;;10153247;29;20251;-85
